Time;durP1;ratioP1;P1;durP2;ratioP2;P2;SDS_P1;SDS_P2;PMS_P1;PMS_P2;Temp;Humidity;BMP_temperature;BMP_pressure;BME280_temperature;BME280_humidity;BME280_pressure;Samples;Min_cycle;Max_cycle;Signal;HPM_P1;HPM_P2
2021/11/20 00:00:23;;;;;;;9.43;6.32;;;;;;;11.00;100.00;103006.59;5015237;28;20038;-74
2021/11/20 00:02:49;;;;;;;7.82;6.65;;;;;;;10.99;100.00;102992.56;5013879;28;20022;-74
2021/11/20 00:05:18;;;;;;;12.10;7.07;;;;;;;11.01;100.00;102982.09;5016905;28;20032;-74
2021/11/20 00:07:44;;;;;;;10.93;7.10;;;;;;;10.99;100.00;102979.38;5029832;28;20055;-74
2021/11/20 00:10:13;;;;;;;10.40;6.57;;;;;;;11.02;100.00;102984.78;5014779;28;20029;-74
2021/11/20 00:12:41;;;;;;;11.68;7.38;;;;;;;11.01;100.00;102989.97;5014638;28;20500;-74
2021/11/20 00:15:11;;;;;;;11.93;6.88;;;;;;;11.00;100.00;102988.16;5013900;28;20026;-74
2021/11/20 00:17:37;;;;;;;13.90;7.00;;;;;;;10.98;100.00;102972.28;5016579;28;20029;-73
2021/11/20 00:20:11;;;;;;;10.40;6.82;;;;;;;11.01;100.00;102967.16;5013043;28;20395;-74
2021/11/20 00:22:37;;;;;;;;;;;;;;;10.95;100.00;102980.06;5014070;28;20033;-74
2021/11/20 00:25:09;;;;;;;14.25;7.82;;;;;;;10.99;100.00;102983.72;5016102;28;20428;-74
2021/11/20 00:27:37;;;;;;;9.15;7.13;;;;;;;10.99;100.00;102973.19;5013963;28;20042;-73
2021/11/20 00:30:17;;;;;;;13.90;7.15;;;;;;;10.96;100.00;102969.59;5012902;28;20053;-74
2021/11/20 00:32:46;;;;;;;11.98;7.07;;;;;;;10.96;100.00;102964.31;5014875;28;20064;-72
2021/11/20 00:35:15;;;;;;;11.90;7.75;;;;;;;10.94;100.00;102965.97;5028385;28;20025;-73
2021/11/20 00:37:41;;;;;;;11.98;8.40;;;;;;;10.95;100.00;102964.25;5008879;28;20119;-74
2021/11/20 00:40:13;;;;;;;14.18;9.20;;;;;;;10.91;100.00;102970.19;5014768;28;20512;-74
2021/11/20 00:42:38;;;;;;;12.02;8.10;;;;;;;10.89;100.00;102956.94;5024162;28;20380;-73
2021/11/20 00:45:04;;;;;;;9.27;7.28;;;;;;;10.90;100.00;102955.22;5022641;28;20035;-73
2021/11/20 00:47:30;;;;;;;14.00;9.07;;;;;;;10.88;100.00;102955.13;5007481;28;20400;-73
2021/11/20 00:49:57;;;;;;;14.32;8.55;;;;;;;10.86;100.00;102971.69;5014884;28;20026;-74
2021/11/20 00:52:24;;;;;;;17.50;9.48;;;;;;;10.87;100.00;102963.88;5012982;28;20072;-74
2021/11/20 00:54:50;;;;;;;12.20;8.43;;;;;;;10.90;100.00;102957.84;5014083;28;20087;-73
2021/11/20 00:57:16;;;;;;;11.98;8.52;;;;;;;10.85;100.00;102948.81;5013244;28;20061;-73
2021/11/20 00:59:42;;;;;;;12.45;8.60;;;;;;;10.82;100.00;102960.09;5014114;28;20085;-73
2021/11/20 01:02:09;;;;;;;13.60;9.20;;;;;;;10.82;100.00;102959.19;5014926;28;20113;-74
2021/11/20 01:04:35;;;;;;;14.32;9.23;;;;;;;10.83;100.00;102953.13;5011735;28;20108;-73
2021/11/20 01:07:02;;;;;;;12.88;9.32;;;;;;;10.82;100.00;102959.19;5013725;28;20378;-73
2021/11/20 01:09:35;;;;;;;14.55;9.52;;;;;;;10.80;100.00;102953.84;5012314;28;20021;-73
2021/11/20 01:12:14;;;;;;;18.67;10.45;;;;;;;10.78;100.00;102948.53;5013982;28;20041;-73
2021/11/20 01:14:43;;;;;;;16.35;10.93;;;;;;;10.79;100.00;102946.78;5014350;28;20037;-73
2021/11/20 01:17:10;;;;;;;12.43;9.77;;;;;;;10.79;100.00;102947.66;5013178;28;20405;-73
2021/11/20 01:19:36;;;;;;;14.63;10.65;;;;;;;10.79;100.00;102945.03;5013151;28;20486;-73
2021/11/20 01:22:05;;;;;;;17.42;10.20;;;;;;;10.83;100.00;102945.22;5012977;28;20397;-73
2021/11/20 01:24:30;;;;;;;20.27;10.55;;;;;;;10.79;100.00;102945.03;5011271;28;20037;-74
2021/11/20 01:26:56;;;;;;;16.42;10.80;;;;;;;10.81;100.00;102937.22;5013248;28;20076;-73
2021/11/20 01:29:23;;;;;;;18.08;11.13;;;;;;;10.79;99.80;102942.41;5012716;28;20097;-73
2021/11/20 01:31:52;;;;;;;15.98;10.85;;;;;;;10.78;99.99;102947.59;5014179;28;20040;-73
2021/11/20 01:34:18;;;;;;;18.23;11.82;;;;;;;10.74;100.00;102941.28;5016705;28;20028;-73
2021/11/20 01:36:46;;;;;;;19.88;11.88;;;;;;;10.80;99.59;102940.69;5013320;28;20034;-74
2021/11/20 01:39:25;;;;;;;17.27;11.75;;;;;;;10.79;99.73;102936.25;5013283;28;20026;-73
2021/11/20 01:41:56;;;;;;;19.38;12.45;;;;;;;10.80;99.45;102931.03;5012441;28;20049;-73
2021/11/20 01:44:32;;;;;;;20.00;13.20;;;;;;;10.76;99.91;102929.09;5012478;28;20026;-74
2021/11/20 01:47:06;;;;;;;18.63;13.13;;;;;;;10.81;99.87;102937.22;5010544;28;20104;-73
2021/11/20 01:49:36;;;;;;;23.30;12.68;;;;;;;10.79;99.78;102944.16;5013655;28;20021;-74
2021/11/20 01:52:26;;;;;;;19.75;12.20;;;;;;;10.81;99.41;102934.56;5013791;28;20036;-74
2021/11/20 01:55:18;;;;;;;22.77;13.15;;;;;;;10.79;99.68;102929.22;5012260;28;20032;-74
2021/11/20 01:57:57;;;;;;;16.58;12.43;;;;;;;10.80;100.00;102925.78;4975579;28;20034;-74
2021/11/20 02:00:32;;;;;;;24.02;15.32;;;;;;;10.75;100.00;102927.28;5012658;28;20056;-74
2021/11/20 02:03:13;;;;;;;21.52;14.38;;;;;;;10.80;100.00;102927.53;5011798;28;20363;-75
2021/11/20 02:06:10;;;;;;;22.20;14.80;;;;;;;10.76;100.00;102921.19;5011731;28;20038;-74
2021/11/20 02:08:44;;;;;;;25.15;14.15;;;;;;;10.73;100.00;102913.16;5008170;28;20065;-74
2021/11/20 02:11:15;;;;;;;22.63;14.70;;;;;;;10.73;100.00;102915.78;5013315;28;20038;-74
2021/11/20 02:13:41;;;;;;;20.00;13.38;;;;;;;10.71;100.00;102922.69;5011352;28;20037;-74
2021/11/20 02:16:16;;;;;;;24.17;14.20;;;;;;;10.73;100.00;102923.69;5013459;28;20486;-74
2021/11/20 02:18:49;;;;;;;22.70;14.70;;;;;;;10.73;100.00;102918.41;5011743;28;20026;-74
2021/11/20 02:21:27;;;;;;;25.85;16.17;;;;;;;10.70;100.00;102918.28;5009334;28;20025;-74
2021/11/20 02:23:52;;;;;;;24.83;16.27;;;;;;;10.66;100.00;102915.41;5016464;28;20038;-74
2021/11/20 02:26:19;;;;;;;21.80;15.45;;;;;;;10.66;100.00;102915.41;5007818;28;20036;-74
2021/11/20 02:28:47;;;;;;;20.98;14.05;;;;;;;10.67;100.00;102917.22;5011722;28;20037;-73
2021/11/20 02:31:16;;;;;;;25.27;15.60;;;;;;;10.71;100.00;102914.78;5012489;28;20030;-73
2021/11/20 02:33:44;;;;;;;28.90;15.88;;;;;;;10.70;100.00;102905.09;5004768;28;20087;-73
2021/11/20 02:36:16;;;;;;;23.27;14.77;;;;;;;10.71;100.00;102903.38;5013273;28;20423;-73
2021/11/20 02:39:02;;;;;;;24.83;15.10;;;;;;;10.72;100.00;102900.81;5012562;28;20038;-72
2021/11/20 02:41:32;;;;;;;22.73;14.73;;;;;;;10.71;100.00;102903.38;5011318;28;20489;-73
2021/11/20 02:44:01;;;;;;;20.77;14.00;;;;;;;10.69;99.73;102898.03;5012279;28;20033;-74
2021/11/20 02:46:32;;;;;;;22.40;13.25;;;;;;;10.66;99.64;102889.94;5013822;28;20049;-73
2021/11/20 02:49:00;;;;;;;25.10;14.05;;;;;;;10.65;99.18;102892.50;5010577;28;20077;-74
2021/11/20 02:51:31;;;;;;;20.60;13.65;;;;;;;10.66;99.01;102889.94;5017953;28;20079;-73
2021/11/20 02:54:04;;;;;;;21.10;13.50;;;;;;;10.64;98.95;102886.34;5012113;28;20493;-73
2021/11/20 02:56:34;;;;;;;19.48;13.10;;;;;;;10.67;98.34;102878.59;5011512;28;20037;-74
2021/11/20 02:59:00;;;;;;;19.58;13.07;;;;;;;10.68;98.32;102879.53;5011893;28;20030;-74
2021/11/20 03:01:36;;;;;;;19.27;12.60;;;;;;;10.66;97.89;102874.16;5011979;28;20113;-74
2021/11/20 03:04:08;;;;;;;20.55;13.13;;;;;;;10.69;97.96;102865.50;5009628;28;20022;-74
2021/11/20 03:06:34;;;;;;;21.08;12.88;;;;;;;10.66;97.88;102874.16;5030231;28;20079;-73
2021/11/20 03:09:01;;;;;;;20.50;13.88;;;;;;;10.65;98.15;102871.44;5012332;28;20026;-73
2021/11/20 03:11:27;;;;;;;18.70;13.10;;;;;;;10.65;97.90;102867.09;5013116;28;20041;-75
2021/11/20 03:13:56;;;;;;;19.23;12.73;;;;;;;10.66;97.78;102868.91;5011070;28;20026;-74
2021/11/20 03:16:25;;;;;;;20.38;12.52;;;;;;;10.67;97.29;102860.16;5010929;28;20050;-74
2021/11/20 03:18:50;;;;;;;16.77;11.85;;;;;;;10.66;97.07;102858.34;5009024;28;20037;-74
2021/11/20 03:21:18;;;;;;;16.25;11.40;;;;;;;10.65;97.19;102867.09;5011436;28;20030;-73
2021/11/20 03:23:48;;;;;;;17.30;11.77;;;;;;;10.63;97.34;102864.41;5011049;28;20036;-73
2021/11/20 03:26:14;;;;;;;14.93;10.43;;;;;;;10.63;97.29;102868.75;5020112;28;20164;-74
2021/11/20 03:28:39;;;;;;;14.63;11.05;;;;;;;10.61;97.05;102852.00;5012505;28;20188;-74
2021/11/20 03:31:05;;;;;;;16.08;12.23;;;;;;;10.60;97.10;102855.44;5012703;28;20378;-74
2021/11/20 03:33:31;;;;;;;16.50;11.88;;;;;;;10.59;97.18;102848.38;5019912;28;20437;-74
2021/11/20 03:35:57;;;;;;;16.50;11.35;;;;;;;10.59;97.05;102848.38;5013989;28;20038;-74
2021/11/20 03:38:23;;;;;;;17.70;11.55;;;;;;;10.56;96.87;102854.38;5015846;28;20113;-74
2021/11/20 03:40:49;;;;;;;15.20;10.80;;;;;;;10.60;96.80;102851.06;5015300;28;20045;-74
2021/11/20 03:43:15;;;;;;;16.10;10.85;;;;;;;10.59;96.63;102840.47;5020270;28;20030;-73
2021/11/20 03:45:41;;;;;;;17.02;11.25;;;;;;;10.59;96.46;102843.09;5027793;28;20385;-74
2021/11/20 03:48:08;;;;;;;18.65;11.65;;;;;;;10.62;96.63;102843.25;5014454;28;20038;-74
2021/11/20 03:50:35;;;;;;;14.25;10.60;;;;;;;10.62;96.38;102835.34;5023485;28;20030;-73
2021/11/20 03:53:02;;;;;;;15.95;11.65;;;;;;;10.58;96.16;102826.41;5017257;28;20034;-74
2021/11/20 03:55:34;;;;;;;18.65;11.13;;;;;;;10.57;96.13;102826.34;5014131;28;20030;-74
2021/11/20 03:58:00;;;;;;;15.93;11.43;;;;;;;10.57;96.11;102827.25;5013661;28;20350;-74
2021/11/20 04:00:30;;;;;;;20.08;12.23;;;;;;;10.55;96.50;102828.00;5015015;28;20046;-74
2021/11/20 04:02:56;;;;;;;17.63;11.77;;;;;;;10.56;96.18;102828.06;5013041;28;20030;-74
2021/11/20 04:05:22;;;;;;;14.80;11.77;;;;;;;10.59;96.13;102835.22;5015256;28;20077;-74
2021/11/20 04:07:49;;;;;;;15.93;12.10;;;;;;;10.56;95.97;102829.81;5014957;28;20083;-74
2021/11/20 04:10:16;;;;;;;18.45;12.25;;;;;;;10.54;95.78;102829.72;5015211;28;20029;-74
2021/11/20 04:12:42;;;;;;;17.73;12.13;;;;;;;10.57;95.75;102831.63;5013684;28;20057;-73
2021/11/20 04:15:11;;;;;;;16.90;11.50;;;;;;;10.57;95.75;102832.50;5014736;28;20034;-73
2021/11/20 04:17:37;;;;;;;17.83;12.75;;;;;;;10.54;95.80;102834.06;5013786;28;20541;-73
2021/11/20 04:20:08;;;;;;;18.95;12.50;;;;;;;10.53;95.87;102829.66;5014585;28;20153;-73
2021/11/20 04:22:34;;;;;;;18.05;13.15;;;;;;;10.52;95.39;102830.47;5019043;28;20080;-74
2021/11/20 04:25:00;;;;;;;18.30;13.52;;;;;;;10.51;95.39;102826.94;5013359;28;20025;-73
2021/11/20 04:27:26;;;;;;;17.13;13.13;;;;;;;10.52;95.17;102825.22;5014167;28;20069;-74
2021/11/20 04:29:51;;;;;;;17.45;13.65;;;;;;;10.54;95.17;102820.91;5015592;28;20477;-74
2021/11/20 04:32:17;;;;;;;18.48;13.63;;;;;;;10.49;95.09;102817.19;5013338;28;20049;-74
2021/11/20 04:34:42;;;;;;;17.92;13.38;;;;;;;10.52;95.35;102812.06;5012754;28;20441;-73
2021/11/20 04:37:08;;;;;;;19.13;13.52;;;;;;;10.49;95.11;102810.16;5014940;28;20037;-74
2021/11/20 04:39:34;;;;;;;17.55;14.00;;;;;;;10.48;95.09;102811.00;5016678;28;20025;-75
2021/11/20 04:42:00;;;;;;;19.35;14.82;;;;;;;10.53;94.57;102808.59;5013038;28;20452;-73
2021/11/20 04:44:27;;;;;;;18.20;13.82;;;;;;;10.53;94.75;102808.59;5013618;28;20040;-73
2021/11/20 04:46:52;;;;;;;18.35;14.70;;;;;;;10.54;94.70;102799.84;5012701;28;20112;-74
2021/11/20 04:49:18;;;;;;;18.70;14.82;;;;;;;10.53;94.52;102811.22;5013290;28;20431;-73
2021/11/20 04:51:43;;;;;;;19.00;14.85;;;;;;;10.48;94.44;102810.09;5013307;28;20042;-73
2021/11/20 04:54:09;;;;;;;20.10;15.75;;;;;;;10.52;94.28;102812.94;5012642;28;20025;-75
2021/11/20 04:56:35;;;;;;;21.73;16.25;;;;;;;10.50;94.66;102817.25;5014667;28;20026;-73
2021/11/20 04:59:00;;;;;;;24.48;15.40;;;;;;;10.49;94.77;102817.19;5013089;28;20039;-74
2021/11/20 05:01:27;;;;;;;22.70;16.88;;;;;;;10.45;94.74;102817.00;5018614;28;20757;-74
2021/11/20 05:03:54;;;;;;;22.42;16.73;;;;;;;10.48;94.55;102810.09;5014452;28;20485;-74
2021/11/20 05:06:23;;;;;;;22.70;17.48;;;;;;;10.48;94.80;102807.47;5013654;28;20117;-74
2021/11/20 05:08:49;;;;;;;23.25;17.58;;;;;;;10.48;94.77;102816.25;5013577;28;20034;-74
2021/11/20 05:11:15;;;;;;;22.92;18.17;;;;;;;10.44;95.26;102815.22;5018809;28;20382;-74
2021/11/20 05:13:40;;;;;;;25.08;18.80;;;;;;;10.46;95.14;102818.81;5014187;28;20057;-74
2021/11/20 05:16:07;;;;;;;25.65;18.92;;;;;;;10.47;95.18;102801.28;5013379;28;20477;-74
2021/11/20 05:18:33;;;;;;;31.25;18.75;;;;;;;10.51;94.92;102810.25;5012932;28;20017;-74
2021/11/20 05:21:00;;;;;;;30.75;19.65;;;;;;;10.45;95.37;102795.06;5018661;28;20103;-74
2021/11/20 05:23:28;;;;;;;27.25;20.55;;;;;;;10.44;95.29;102799.44;5010284;28;20101;-74
2021/11/20 05:25:54;;;;;;;27.20;19.13;;;;;;;10.44;95.54;102799.44;5012704;28;20037;-74
2021/11/20 05:28:19;;;;;;;28.83;20.02;;;;;;;10.40;95.80;102791.28;5012514;28;20036;-74
2021/11/20 05:30:47;;;;;;;28.27;19.83;;;;;;;10.40;95.59;102792.19;5012816;28;20025;-74
2021/11/20 05:33:23;;;;;;;31.35;19.55;;;;;;;10.43;95.35;102788.81;5013629;28;20038;-74
2021/11/20 05:35:50;;;;;;;31.20;20.63;;;;;;;10.43;95.35;102792.34;5012466;28;20026;-74
2021/11/20 05:38:16;;;;;;;33.15;21.92;;;;;;;10.42;95.23;102787.03;5011543;28;20029;-74
2021/11/20 05:40:42;;;;;;;30.02;20.73;;;;;;;10.41;95.41;102782.59;5012381;28;20034;-74
2021/11/20 05:43:14;;;;;;;30.63;21.75;;;;;;;10.41;95.49;102775.56;5011291;28;20161;-74
2021/11/20 05:45:42;;;;;;;34.47;22.40;;;;;;;10.38;95.35;102767.53;5014266;28;20125;-73
2021/11/20 05:48:08;;;;;;;33.95;23.15;;;;;;;10.36;95.63;102768.28;5012536;28;20036;-73
2021/11/20 05:50:35;;;;;;;33.13;22.48;;;;;;;10.35;95.85;102775.28;5012184;28;20018;-74
2021/11/20 05:53:01;;;;;;;32.75;23.63;;;;;;;10.34;95.86;102765.56;5011937;28;20029;-74
2021/11/20 05:55:32;;;;;;;30.65;23.52;;;;;;;10.36;95.29;102771.81;5011796;28;20050;-72
2021/11/20 05:57:58;;;;;;;36.03;24.67;;;;;;;10.30;95.79;102769.75;5011211;28;20038;-73
2021/11/20 06:00:30;;;;;;;32.30;23.15;;;;;;;10.32;95.73;102761.94;5010976;28;20052;-73
2021/11/20 06:02:58;;;;;;;32.72;24.23;;;;;;;10.33;95.98;102758.47;5012161;28;20029;-73
2021/11/20 06:05:25;;;;;;;33.45;24.52;;;;;;;10.32;96.06;102754.03;5010631;28;20454;-73
2021/11/20 06:07:51;;;;;;;33.55;24.48;;;;;;;10.34;96.26;102756.78;5013539;28;20037;-74
2021/11/20 06:10:17;;;;;;;32.75;22.15;;;;;;;10.33;96.46;102752.31;5023559;28;20025;-74
2021/11/20 06:12:43;;;;;;;32.40;23.88;;;;;;;10.30;95.86;102740.81;5012152;28;20030;-73
2021/11/20 06:15:09;;;;;;;32.42;21.42;;;;;;;10.33;96.20;102747.94;5012493;28;20508;-73
2021/11/20 06:17:34;;;;;;;34.45;23.85;;;;;;;10.31;95.87;102741.72;5012875;28;20113;-73
2021/11/20 06:20:04;;;;;;;31.10;22.50;;;;;;;10.30;95.60;102737.28;5012826;28;20176;-74
2021/11/20 06:22:29;;;;;;;32.05;22.75;;;;;;;10.28;96.30;102737.22;5011473;28;20374;-74
2021/11/20 06:24:57;;;;;;;31.55;22.48;;;;;;;10.25;96.31;102734.41;5010985;28;20026;-73
2021/11/20 06:27:23;;;;;;;29.88;21.48;;;;;;;10.24;96.27;102731.72;5010527;28;20752;-73
2021/11/20 06:29:50;;;;;;;30.02;21.00;;;;;;;10.32;95.86;102735.63;5012021;28;20462;-74
2021/11/20 06:32:16;;;;;;;28.48;21.60;;;;;;;10.32;95.09;102737.34;5010699;28;20041;-74
2021/11/20 06:34:42;;;;;;;25.95;19.83;;;;;;;10.29;95.42;102731.13;5011025;28;20050;-75
2021/11/20 06:37:07;;;;;;;29.92;21.75;;;;;;;10.28;95.08;102741.56;5012452;28;20069;-73
2021/11/20 06:39:34;;;;;;;31.95;21.88;;;;;;;10.26;95.63;102730.97;5011709;28;20378;-74
2021/11/20 06:42:03;;;;;;;29.42;21.60;;;;;;;10.22;95.78;102736.03;5011101;28;20061;-74
2021/11/20 06:44:30;;;;;;;31.30;22.67;;;;;;;10.23;95.47;102727.31;5015446;28;20436;-74
2021/11/20 06:46:56;;;;;;;32.10;21.38;;;;;;;10.20;95.71;102729.75;5007897;28;20383;-74
2021/11/20 06:49:22;;;;;;;29.42;21.63;;;;;;;10.23;95.74;102735.19;5009707;28;20540;-73
2021/11/20 06:51:48;;;;;;;29.60;21.60;;;;;;;10.29;95.34;102736.41;5012213;28;20535;-73
2021/11/20 06:54:13;;;;;;;32.38;21.67;;;;;;;10.29;95.34;102738.13;5010429;28;20054;-73
2021/11/20 06:56:43;;;;;;;30.70;23.20;;;;;;;10.26;95.60;102741.50;5012325;28;20022;-74
2021/11/20 07:01:49;;;;;;;30.70;21.08;;;;;;;10.23;95.65;102740.47;5004098;28;20537;-74
2021/11/20 07:04:23;;;;;;;30.10;21.38;;;;;;;10.22;95.58;102731.66;5006988;28;20042;-73
2021/11/20 07:07:02;;;;;;;33.35;22.60;;;;;;;10.20;96.07;102730.69;5015201;28;20038;-74
2021/11/20 07:09:28;;;;;;;31.92;22.90;;;;;;;10.22;96.08;102729.00;5015268;28;20417;-74
2021/11/20 07:11:54;;;;;;;31.70;21.20;;;;;;;10.24;96.00;102729.09;5017257;28;20030;-74
2021/11/20 07:14:20;;;;;;;30.80;21.30;;;;;;;10.25;95.96;102730.91;5014262;28;20030;-75
2021/11/20 07:16:46;;;;;;;37.35;23.10;;;;;;;10.23;96.11;102729.94;5016876;28;20397;-74
2021/11/20 07:19:12;;;;;;;32.97;23.17;;;;;;;10.26;95.97;102725.69;5010249;28;20054;-73
2021/11/20 07:21:37;;;;;;;31.55;22.05;;;;;;;10.22;96.24;102736.03;5008146;28;20504;-74
2021/11/20 07:24:07;;;;;;;33.38;22.27;;;;;;;10.21;96.45;102723.69;5006691;28;20034;-73
2021/11/20 07:26:33;;;;;;;30.83;20.60;;;;;;;10.21;96.53;102723.69;5014229;28;20507;-73
2021/11/20 07:28:59;;;;;;;31.27;21.27;;;;;;;10.21;96.40;102726.31;5015181;28;20034;-73
2021/11/20 07:31:25;;;;;;;34.15;21.58;;;;;;;10.25;96.56;102723.00;5005670;28;20113;-74
2021/11/20 07:33:51;;;;;;;32.28;21.55;;;;;;;10.18;96.46;102708.66;5015348;28;20037;-73
2021/11/20 07:36:18;;;;;;;31.30;21.45;;;;;;;10.21;96.58;102703.53;5014329;28;20053;-74
2021/11/20 07:38:55;;;;;;;29.17;20.48;;;;;;;10.23;96.20;102703.63;5024426;28;20108;-73
2021/11/20 07:41:24;;;;;;;29.83;18.95;;;;;;;10.28;96.54;102710.91;5014050;28;20376;-74
2021/11/20 07:43:49;;;;;;;30.00;19.45;;;;;;;10.27;95.99;102695.94;5014796;28;20099;-73
2021/11/20 07:46:18;;;;;;;28.05;19.35;;;;;;;10.27;96.22;102701.19;5013266;28;20030;-73
2021/11/20 07:48:44;;;;;;;28.23;19.67;;;;;;;10.32;96.04;102701.41;5014943;28;20390;-74
2021/11/20 07:51:12;;;;;;;25.98;18.08;;;;;;;10.29;96.01;102703.91;5013695;28;20026;-74
2021/11/20 07:53:38;;;;;;;31.52;19.73;;;;;;;10.33;96.28;102710.22;5013041;28;20033;-73
2021/11/20 07:56:04;;;;;;;31.17;20.42;;;;;;;10.31;96.08;102702.25;5012171;28;20076;-73
2021/11/20 07:58:30;;;;;;;30.70;20.58;;;;;;;10.28;96.29;102707.34;5013044;28;20029;-72
2021/11/20 08:00:56;;;;;;;30.60;19.73;;;;;;;10.28;96.39;102696.81;5014968;28;20037;-73
2021/11/20 08:03:23;;;;;;;30.30;20.17;;;;;;;10.31;96.17;102697.00;5022546;28;20042;-74
2021/11/20 08:05:50;;;;;;;29.63;19.83;;;;;;;10.35;96.16;102687.53;5013515;28;20026;-75
2021/11/20 08:08:20;;;;;;;34.30;20.13;;;;;;;10.35;96.08;102692.78;5017194;28;20022;-75
2021/11/20 08:10:46;;;;;;;29.00;20.00;;;;;;;10.34;96.11;102683.97;5023085;28;20072;-75
2021/11/20 08:13:11;;;;;;;28.67;19.90;;;;;;;10.37;96.22;102678.88;5031628;28;20056;-76
2021/11/20 08:15:38;;;;;;;29.58;20.58;;;;;;;10.34;96.19;102690.97;5031632;28;20061;-76
2021/11/20 08:18:04;;;;;;;31.50;22.08;;;;;;;10.37;96.24;102673.63;5016999;28;20026;-75
2021/11/20 08:20:34;;;;;;;29.83;20.35;;;;;;;10.42;96.32;102672.13;5018830;28;20038;-74
2021/11/20 08:23:02;;;;;;;35.08;22.35;;;;;;;10.46;96.00;102666.16;5013494;28;20018;-75
2021/11/20 08:25:28;;;;;;;32.03;22.33;;;;;;;10.49;96.23;102664.50;5015775;28;20535;-73
2021/11/20 08:27:55;;;;;;;30.90;21.63;;;;;;;10.51;96.13;102657.56;5009454;28;20029;-76
2021/11/20 08:30:23;;;;;;;33.10;21.35;;;;;;;10.49;96.36;102661.88;5011574;28;20460;-75
2021/11/20 08:32:49;;;;;;;32.13;22.42;;;;;;;10.46;96.54;102660.91;5008958;28;20081;-75
2021/11/20 08:35:17;;;;;;;33.97;22.85;;;;;;;10.46;96.66;102655.63;5013171;28;20025;-75
2021/11/20 08:37:43;;;;;;;37.67;21.83;;;;;;;10.52;96.75;102659.38;5016127;28;20051;-74
2021/11/20 08:40:13;;;;;;;35.08;23.80;;;;;;;10.49;97.00;102654.00;5012985;28;20084;-75
2021/11/20 08:42:41;;;;;;;40.70;24.35;;;;;;;10.50;96.98;102655.75;4995609;28;20030;-75
2021/11/20 08:45:14;;;;;;;33.22;22.27;;;;;;;10.53;97.35;102650.66;5014427;28;20038;-75
2021/11/20 08:47:39;;;;;;;40.30;22.77;;;;;;;10.56;97.16;102651.69;5027032;28;20065;-75
2021/11/20 08:50:08;;;;;;;38.15;24.50;;;;;;;10.55;97.25;102643.72;5014650;28;20496;-73
2021/11/20 08:52:34;;;;;;;38.53;25.48;;;;;;;10.62;97.05;102640.53;5013134;28;20080;-73
2021/11/20 08:54:59;;;;;;;37.35;23.27;;;;;;;10.61;97.17;102646.66;5013279;28;20057;-73
2021/11/20 08:57:26;;;;;;;38.83;23.55;;;;;;;10.61;97.47;102644.00;5013895;28;20125;-72
2021/11/20 08:59:52;;;;;;;44.35;26.02;;;;;;;10.62;97.55;102641.44;5014484;28;20037;-73
2021/11/20 09:02:26;;;;;;;37.50;23.77;;;;;;;10.62;97.39;102651.06;5023511;28;20039;-75
2021/11/20 09:05:08;;;;;;;40.28;24.50;;;;;;;10.58;97.97;102646.47;5011830;28;20049;-73
2021/11/20 09:07:39;;;;;;;40.38;24.60;;;;;;;10.60;97.84;102647.47;5012303;28;20029;-72
2021/11/20 09:10:20;;;;;;;38.65;23.88;;;;;;;10.59;98.12;102640.41;5026697;28;20021;-73
2021/11/20 09:12:57;;;;;;;37.35;24.23;;;;;;;10.59;98.30;102635.13;5013335;28;20041;-73
2021/11/20 09:15:49;;;;;;;39.20;24.40;;;;;;;10.65;97.91;102634.50;5029839;28;20375;-72
2021/11/20 09:18:15;;;;;;;40.08;24.30;;;;;;;10.61;98.30;102633.50;5013480;28;20034;-73
2021/11/20 09:20:40;;;;;;;44.85;25.08;;;;;;;10.59;98.50;102627.25;5020343;28;20041;-73
2021/11/20 09:23:06;;;;;;;44.65;25.48;;;;;;;10.64;98.53;102625.72;5011741;28;20026;-74
2021/11/20 09:25:32;;;;;;;45.45;25.52;;;;;;;10.68;98.57;102630.28;5015382;28;20394;-73
2021/11/20 09:28:02;;;;;;;41.97;25.27;;;;;;;10.70;98.41;102620.75;5013181;28;20038;-74
2021/11/20 09:30:33;;;;;;;43.28;25.23;;;;;;;10.71;98.22;102616.38;5010606;28;21558;-74
2021/11/20 09:32:59;;;;;;;43.22;24.63;;;;;;;10.69;98.49;102616.31;5014698;28;20033;-74
2021/11/20 09:35:25;;;;;;;41.33;25.10;;;;;;;10.63;98.61;102616.94;5010847;28;20092;-74
2021/11/20 09:37:51;;;;;;;42.28;25.52;;;;;;;10.61;98.97;102622.97;5009716;28;20029;-74
2021/11/20 09:40:17;;;;;;;38.53;23.70;;;;;;;10.65;98.81;102618.72;5007058;28;20022;-74
2021/11/20 09:42:47;;;;;;;40.03;24.05;;;;;;;10.66;98.89;102624.03;5002713;28;20034;-74
2021/11/20 09:45:19;;;;;;;40.80;23.35;;;;;;;10.65;98.91;102622.25;5015804;28;20042;-76
2021/11/20 09:47:49;;;;;;;43.28;26.10;;;;;;;10.69;98.86;102626.84;5014224;28;20041;-74
2021/11/20 09:50:35;;;;;;;39.55;23.35;;;;;;;10.62;99.30;102622.09;5009804;28;20470;-74
2021/11/20 09:53:02;;;;;;;40.00;23.45;;;;;;;10.63;99.14;102626.53;5014759;28;20160;-75
2021/11/20 09:55:35;;;;;;;42.30;24.42;;;;;;;10.60;99.36;102615.88;5015954;28;20037;-75
2021/11/20 09:58:12;;;;;;;38.85;22.92;;;;;;;10.63;99.15;102626.53;5030485;28;20045;-75
2021/11/20 10:01:06;;;;;;;37.30;22.25;;;;;;;10.66;99.39;102613.50;5003499;28;20034;-76
2021/11/20 10:03:46;;;;;;;40.90;22.65;;;;;;;10.65;99.34;102611.72;5014437;28;20429;-75
2021/11/20 10:06:18;;;;;;;34.22;22.50;;;;;;;10.64;99.61;102607.28;5018554;28;20032;-75
2021/11/20 10:08:45;;;;;;;35.75;21.67;;;;;;;10.68;99.18;102603.97;5024703;28;20436;-75
2021/11/20 10:11:34;;;;;;;36.25;22.77;;;;;;;10.73;98.96;102601.53;5014965;28;20075;-75
2021/11/20 10:14:19;;;;;;;39.92;23.60;;;;;;;10.76;99.06;102599.94;5013426;28;20037;-74
2021/11/20 10:16:51;;;;;;;37.28;23.98;;;;;;;10.74;98.97;102591.09;5019105;28;20492;-74
2021/11/20 10:19:43;;;;;;;36.20;23.00;;;;;;;10.78;98.90;102595.66;5025195;28;20038;-74
2021/11/20 10:22:28;;;;;;;39.03;24.23;;;;;;;10.77;98.95;102587.66;5020918;28;20059;-74
2021/11/20 10:25:21;;;;;;;38.88;23.42;;;;;;;10.75;99.11;102578.81;5005735;28;20033;-75
2021/11/20 10:27:52;;;;;;;33.92;22.50;;;;;;;10.73;99.42;102589.28;5012957;28;20033;-74
2021/11/20 10:30:29;;;;;;;36.30;23.67;;;;;;;10.73;99.29;102597.16;5014315;28;20116;-73
2021/11/20 10:33:00;;;;;;;31.45;22.15;;;;;;;10.79;99.25;102597.44;5020985;28;20034;-75
2021/11/20 10:35:38;;;;;;;36.38;24.25;;;;;;;10.75;99.35;102595.50;5020353;28;20033;-75
2021/11/20 10:38:22;;;;;;;38.03;24.13;;;;;;;10.83;99.40;102592.31;5012193;28;20359;-74
2021/11/20 10:40:53;;;;;;;;;;;;;;;10.80;99.41;102593.06;5015970;28;20037;-75
2021/11/20 10:43:42;;;;;;;36.60;23.08;;;;;;;10.85;99.28;102586.28;5020616;28;20010;-75
2021/11/20 10:46:26;;;;;;;37.85;22.83;;;;;;;10.86;99.57;102592.44;5014815;28;20034;-74
2021/11/20 10:49:18;;;;;;;39.45;24.55;;;;;;;10.80;99.71;102583.44;5023182;28;20045;-75
2021/11/20 10:51:44;;;;;;;39.75;24.50;;;;;;;10.83;99.76;102587.06;5017803;28;20105;-74
2021/11/20 10:54:25;;;;;;;38.05;24.50;;;;;;;10.83;100.00;102579.16;5017328;28;20113;-75
2021/11/20 10:57:14;;;;;;;44.00;25.70;;;;;;;10.78;100.00;102573.66;5019974;28;20440;-75
2021/11/20 11:00:04;;;;;;;36.53;23.45;;;;;;;10.85;99.93;102565.22;5014381;28;20383;-76
2021/11/20 11:02:41;;;;;;;39.63;25.30;;;;;;;10.84;99.93;102558.16;5017350;28;20504;-75
2021/11/20 11:05:51;;;;;;;41.50;26.50;;;;;;;10.81;100.00;102555.34;5017299;28;20030;-74
2021/11/20 11:08:41;;;;;;;39.03;25.17;;;;;;;10.82;100.00;102546.63;4923104;29;20039;-73
2021/11/20 11:11:33;;;;;;;40.75;25.00;;;;;;;10.85;100.00;102535.31;4959161;28;20027;-73
2021/11/20 11:14:15;;;;;;;39.70;25.15;;;;;;;10.84;100.00;102536.16;5007082;28;20451;-74
2021/11/20 11:16:53;;;;;;;38.50;24.38;;;;;;;10.77;100.00;102535.91;5021055;28;20080;-74
2021/11/20 11:19:46;;;;;;;40.00;24.38;;;;;;;10.83;100.00;102523.84;5020506;28;20111;-73
2021/11/20 11:22:37;;;;;;;41.80;25.17;;;;;;;10.85;100.00;102523.09;5025436;28;20113;-73
2021/11/20 11:25:23;;;;;;;40.58;24.85;;;;;;;10.84;100.00;102518.66;5019056;28;20437;-74